sensor_id;sensor_type;location;lat;lon;timestamp;P1;durP1;ratioP1;P2;durP2;ratioP2
31464;SDS011;18089;47.428;15.006;2023-04-25T00:00:48;6.57;;;6.25;;
31464;SDS011;18089;47.428;15.006;2023-04-25T00:03:23;6.50;;;6.10;;
31464;SDS011;18089;47.428;15.006;2023-04-25T00:05:56;6.60;;;6.20;;
31464;SDS011;18089;47.428;15.006;2023-04-25T00:08:28;6.68;;;6.28;;
31464;SDS011;18089;47.428;15.006;2023-04-25T00:11:00;6.40;;;6.10;;
31464;SDS011;18089;47.428;15.006;2023-04-25T00:13:32;6.43;;;6.03;;
31464;SDS011;18089;47.428;15.006;2023-04-25T00:16:04;6.65;;;6.25;;
31464;SDS011;18089;47.428;15.006;2023-04-25T00:18:39;6.20;;;5.90;;
31464;SDS011;18089;47.428;15.006;2023-04-25T00:21:11;6.47;;;6.18;;
31464;SDS011;18089;47.428;15.006;2023-04-25T00:23:43;6.50;;;6.20;;
31464;SDS011;18089;47.428;15.006;2023-04-25T00:26:16;6.55;;;6.25;;
31464;SDS011;18089;47.428;15.006;2023-04-25T00:28:48;6.28;;;5.97;;
31464;SDS011;18089;47.428;15.006;2023-04-25T00:31:20;6.32;;;6.03;;
31464;SDS011;18089;47.428;15.006;2023-04-25T00:33:54;6.57;;;6.28;;
31464;SDS011;18089;47.428;15.006;2023-04-25T00:36:26;6.53;;;6.22;;
31464;SDS011;18089;47.428;15.006;2023-04-25T00:38:58;6.75;;;6.20;;
31464;SDS011;18089;47.428;15.006;2023-04-25T00:41:30;6.80;;;6.50;;
31464;SDS011;18089;47.428;15.006;2023-04-25T00:44:03;6.57;;;6.28;;
31464;SDS011;18089;47.428;15.006;2023-04-25T00:46:37;6.85;;;6.45;;
31464;SDS011;18089;47.428;15.006;2023-04-25T00:49:11;7.25;;;6.85;;
31464;SDS011;18089;47.428;15.006;2023-04-25T00:51:45;6.65;;;6.22;;
31464;SDS011;18089;47.428;15.006;2023-04-25T00:54:17;7.03;;;6.63;;
31464;SDS011;18089;47.428;15.006;2023-04-25T00:56:49;7.18;;;6.78;;
31464;SDS011;18089;47.428;15.006;2023-04-25T00:59:21;6.70;;;6.30;;
31464;SDS011;18089;47.428;15.006;2023-04-25T01:01:53;6.85;;;6.40;;
31464;SDS011;18089;47.428;15.006;2023-04-25T01:04:27;6.70;;;6.40;;
31464;SDS011;18089;47.428;15.006;2023-04-25T01:06:59;6.75;;;6.45;;
31464;SDS011;18089;47.428;15.006;2023-04-25T01:09:32;7.43;;;7.03;;
31464;SDS011;18089;47.428;15.006;2023-04-25T01:12:05;6.82;;;6.53;;
31464;SDS011;18089;47.428;15.006;2023-04-25T01:14:37;6.88;;;6.55;;
31464;SDS011;18089;47.428;15.006;2023-04-25T01:17:09;7.05;;;6.75;;
31464;SDS011;18089;47.428;15.006;2023-04-25T01:19:43;6.70;;;6.40;;
31464;SDS011;18089;47.428;15.006;2023-04-25T01:22:17;6.78;;;6.47;;
31464;SDS011;18089;47.428;15.006;2023-04-25T01:24:49;6.95;;;6.65;;
31464;SDS011;18089;47.428;15.006;2023-04-25T01:27:21;6.80;;;6.50;;
31464;SDS011;18089;47.428;15.006;2023-04-25T01:29:54;6.88;;;6.57;;
31464;SDS011;18089;47.428;15.006;2023-04-25T01:32:26;7.20;;;6.80;;
31464;SDS011;18089;47.428;15.006;2023-04-25T01:34:58;7.55;;;7.15;;
31464;SDS011;18089;47.428;15.006;2023-04-25T01:37:31;7.47;;;7.07;;
31464;SDS011;18089;47.428;15.006;2023-04-25T01:40:04;7.18;;;6.70;;
31464;SDS011;18089;47.428;15.006;2023-04-25T01:42:38;7.05;;;6.65;;
31464;SDS011;18089;47.428;15.006;2023-04-25T01:45:11;7.10;;;6.80;;
31464;SDS011;18089;47.428;15.006;2023-04-25T01:47:44;6.55;;;6.25;;
31464;SDS011;18089;47.428;15.006;2023-04-25T01:50:19;7.00;;;6.55;;
31464;SDS011;18089;47.428;15.006;2023-04-25T01:52:52;6.75;;;6.20;;
31464;SDS011;18089;47.428;15.006;2023-04-25T01:55:25;6.63;;;6.22;;
31464;SDS011;18089;47.428;15.006;2023-04-25T01:57:57;6.93;;;6.63;;
31464;SDS011;18089;47.428;15.006;2023-04-25T02:00:30;6.30;;;6.00;;
31464;SDS011;18089;47.428;15.006;2023-04-25T02:03:02;6.95;;;6.57;;
31464;SDS011;18089;47.428;15.006;2023-04-25T02:05:35;7.10;;;6.55;;
31464;SDS011;18089;47.428;15.006;2023-04-25T02:08:09;6.88;;;6.47;;
31464;SDS011;18089;47.428;15.006;2023-04-25T02:10:41;7.07;;;6.70;;
31464;SDS011;18089;47.428;15.006;2023-04-25T02:13:13;7.70;;;7.13;;
31464;SDS011;18089;47.428;15.006;2023-04-25T02:15:45;7.85;;;7.15;;
31464;SDS011;18089;47.428;15.006;2023-04-25T02:18:17;7.35;;;7.05;;
31464;SDS011;18089;47.428;15.006;2023-04-25T02:20:50;8.18;;;7.78;;
31464;SDS011;18089;47.428;15.006;2023-04-25T02:23:23;8.25;;;7.75;;
31464;SDS011;18089;47.428;15.006;2023-04-25T02:25:55;7.40;;;7.00;;
31464;SDS011;18089;47.428;15.006;2023-04-25T02:28:28;8.63;;;8.10;;
31464;SDS011;18089;47.428;15.006;2023-04-25T02:31:00;8.30;;;7.90;;
31464;SDS011;18089;47.428;15.006;2023-04-25T02:33:32;8.00;;;7.53;;
31464;SDS011;18089;47.428;15.006;2023-04-25T02:36:04;11.68;;;9.48;;
31464;SDS011;18089;47.428;15.006;2023-04-25T02:38:38;8.45;;;7.95;;
31464;SDS011;18089;47.428;15.006;2023-04-25T02:41:10;8.52;;;8.10;;
31464;SDS011;18089;47.428;15.006;2023-04-25T02:43:42;8.18;;;7.57;;
31464;SDS011;18089;47.428;15.006;2023-04-25T02:46:14;8.32;;;7.82;;
31464;SDS011;18089;47.428;15.006;2023-04-25T02:48:46;8.00;;;7.50;;
31464;SDS011;18089;47.428;15.006;2023-04-25T02:51:18;8.75;;;8.27;;
31464;SDS011;18089;47.428;15.006;2023-04-25T02:53:52;8.55;;;7.88;;
31464;SDS011;18089;47.428;15.006;2023-04-25T02:56:24;8.32;;;7.93;;
31464;SDS011;18089;47.428;15.006;2023-04-25T02:58:56;8.90;;;8.38;;
31464;SDS011;18089;47.428;15.006;2023-04-25T03:01:28;8.93;;;8.43;;
31464;SDS011;18089;47.428;15.006;2023-04-25T03:04:00;8.30;;;7.90;;
31464;SDS011;18089;47.428;15.006;2023-04-25T03:06:32;9.02;;;8.55;;
31464;SDS011;18089;47.428;15.006;2023-04-25T03:09:06;8.85;;;8.30;;
31464;SDS011;18089;47.428;15.006;2023-04-25T03:11:38;8.23;;;7.72;;
31464;SDS011;18089;47.428;15.006;2023-04-25T03:14:10;8.98;;;8.48;;
31464;SDS011;18089;47.428;15.006;2023-04-25T03:16:42;8.60;;;8.00;;
31464;SDS011;18089;47.428;15.006;2023-04-25T03:19:15;8.50;;;7.90;;
31464;SDS011;18089;47.428;15.006;2023-04-25T03:21:47;8.60;;;8.00;;
31464;SDS011;18089;47.428;15.006;2023-04-25T03:24:21;9.15;;;8.63;;
31464;SDS011;18089;47.428;15.006;2023-04-25T03:26:53;9.60;;;9.00;;
31464;SDS011;18089;47.428;15.006;2023-04-25T03:29:25;9.45;;;8.75;;
31464;SDS011;18089;47.428;15.006;2023-04-25T03:31:58;8.68;;;8.18;;
31464;SDS011;18089;47.428;15.006;2023-04-25T03:34:30;9.35;;;8.80;;
31464;SDS011;18089;47.428;15.006;2023-04-25T03:37:02;9.98;;;9.18;;
31464;SDS011;18089;47.428;15.006;2023-04-25T03:39:35;10.48;;;9.73;;
31464;SDS011;18089;47.428;15.006;2023-04-25T03:42:07;13.90;;;9.45;;
31464;SDS011;18089;47.428;15.006;2023-04-25T03:44:39;9.43;;;8.77;;
31464;SDS011;18089;47.428;15.006;2023-04-25T03:47:11;9.68;;;9.05;;
31464;SDS011;18089;47.428;15.006;2023-04-25T03:49:43;10.10;;;9.38;;
31464;SDS011;18089;47.428;15.006;2023-04-25T03:52:15;9.60;;;9.10;;
31464;SDS011;18089;47.428;15.006;2023-04-25T03:54:49;9.50;;;8.93;;
31464;SDS011;18089;47.428;15.006;2023-04-25T03:57:21;9.77;;;9.00;;
31464;SDS011;18089;47.428;15.006;2023-04-25T03:59:53;10.13;;;9.52;;
31464;SDS011;18089;47.428;15.006;2023-04-25T04:02:25;10.27;;;9.27;;
31464;SDS011;18089;47.428;15.006;2023-04-25T04:04:57;10.15;;;9.40;;
31464;SDS011;18089;47.428;15.006;2023-04-25T04:07:29;11.48;;;9.68;;
31464;SDS011;18089;47.428;15.006;2023-04-25T04:10:04;10.35;;;9.63;;
31464;SDS011;18089;47.428;15.006;2023-04-25T04:12:37;16.98;;;15.38;;
31464;SDS011;18089;47.428;15.006;2023-04-25T04:15:10;15.32;;;14.02;;
31464;SDS011;18089;47.428;15.006;2023-04-25T04:17:42;15.32;;;13.82;;
31464;SDS011;18089;47.428;15.006;2023-04-25T04:20:14;14.77;;;13.27;;
31464;SDS011;18089;47.428;15.006;2023-04-25T04:22:46;13.55;;;12.43;;
31464;SDS011;18089;47.428;15.006;2023-04-25T04:25:19;12.00;;;11.10;;
31464;SDS011;18089;47.428;15.006;2023-04-25T04:27:51;12.02;;;10.93;;
31464;SDS011;18089;47.428;15.006;2023-04-25T04:30:24;12.20;;;11.30;;
31464;SDS011;18089;47.428;15.006;2023-04-25T04:32:59;13.45;;;12.10;;
31464;SDS011;18089;47.428;15.006;2023-04-25T04:35:31;12.00;;;11.13;;
31464;SDS011;18089;47.428;15.006;2023-04-25T04:38:04;11.55;;;10.68;;
31464;SDS011;18089;47.428;15.006;2023-04-25T04:40:37;11.18;;;10.18;;
31464;SDS011;18089;47.428;15.006;2023-04-25T04:43:09;10.65;;;9.85;;
31464;SDS011;18089;47.428;15.006;2023-04-25T04:45:41;10.50;;;9.57;;
31464;SDS011;18089;47.428;15.006;2023-04-25T04:48:14;11.25;;;10.20;;
31464;SDS011;18089;47.428;15.006;2023-04-25T04:50:46;10.00;;;9.30;;
31464;SDS011;18089;47.428;15.006;2023-04-25T04:53:18;10.50;;;9.65;;
31464;SDS011;18089;47.428;15.006;2023-04-25T04:55:52;10.20;;;9.30;;
31464;SDS011;18089;47.428;15.006;2023-04-25T04:58:24;12.20;;;9.98;;
31464;SDS011;18089;47.428;15.006;2023-04-25T05:00:59;10.63;;;9.60;;
31464;SDS011;18089;47.428;15.006;2023-04-25T05:03:31;9.65;;;9.00;;
31464;SDS011;18089;47.428;15.006;2023-04-25T05:06:03;9.02;;;8.10;;
31464;SDS011;18089;47.428;15.006;2023-04-25T05:08:35;8.20;;;7.40;;
31464;SDS011;18089;47.428;15.006;2023-04-25T05:11:09;9.27;;;7.00;;
31464;SDS011;18089;47.428;15.006;2023-04-25T05:13:41;7.53;;;6.93;;
31464;SDS011;18089;47.428;15.006;2023-04-25T05:16:13;8.60;;;7.78;;
31464;SDS011;18089;47.428;15.006;2023-04-25T05:18:45;8.35;;;7.65;;
31464;SDS011;18089;47.428;15.006;2023-04-25T05:21:17;8.30;;;7.03;;
31464;SDS011;18089;47.428;15.006;2023-04-25T05:23:49;7.05;;;6.38;;
31464;SDS011;18089;47.428;15.006;2023-04-25T05:26:23;7.07;;;6.57;;
31464;SDS011;18089;47.428;15.006;2023-04-25T05:28:55;7.05;;;6.30;;
31464;SDS011;18089;47.428;15.006;2023-04-25T05:31:27;6.65;;;6.13;;
31464;SDS011;18089;47.428;15.006;2023-04-25T05:33:59;7.03;;;6.57;;
31464;SDS011;18089;47.428;15.006;2023-04-25T05:36:31;8.07;;;7.25;;
31464;SDS011;18089;47.428;15.006;2023-04-25T05:39:03;8.00;;;7.40;;
31464;SDS011;18089;47.428;15.006;2023-04-25T05:41:37;8.23;;;7.43;;
31464;SDS011;18089;47.428;15.006;2023-04-25T05:44:09;8.65;;;7.80;;
31464;SDS011;18089;47.428;15.006;2023-04-25T05:46:41;8.60;;;7.90;;
31464;SDS011;18089;47.428;15.006;2023-04-25T05:49:14;8.82;;;8.07;;
31464;SDS011;18089;47.428;15.006;2023-04-25T05:51:46;8.05;;;7.22;;
31464;SDS011;18089;47.428;15.006;2023-04-25T05:54:18;8.00;;;7.40;;
31464;SDS011;18089;47.428;15.006;2023-04-25T05:56:51;8.15;;;7.45;;
31464;SDS011;18089;47.428;15.006;2023-04-25T05:59:23;9.60;;;8.40;;
31464;SDS011;18089;47.428;15.006;2023-04-25T06:01:55;8.85;;;8.15;;
31464;SDS011;18089;47.428;15.006;2023-04-25T06:04:27;8.18;;;7.47;;
31464;SDS011;18089;47.428;15.006;2023-04-25T06:06:59;8.23;;;7.68;;
31464;SDS011;18089;47.428;15.006;2023-04-25T06:09:31;7.78;;;7.15;;
31464;SDS011;18089;47.428;15.006;2023-04-25T06:12:05;8.65;;;7.88;;
31464;SDS011;18089;47.428;15.006;2023-04-25T06:14:37;8.13;;;7.47;;
31464;SDS011;18089;47.428;15.006;2023-04-25T06:17:09;7.65;;;6.88;;
31464;SDS011;18089;47.428;15.006;2023-04-25T06:19:41;7.80;;;7.10;;
31464;SDS011;18089;47.428;15.006;2023-04-25T06:22:13;7.22;;;6.72;;
31464;SDS011;18089;47.428;15.006;2023-04-25T06:24:45;7.35;;;6.85;;
31464;SDS011;18089;47.428;15.006;2023-04-25T06:27:19;7.07;;;6.57;;
31464;SDS011;18089;47.428;15.006;2023-04-25T06:29:51;6.70;;;6.10;;
31464;SDS011;18089;47.428;15.006;2023-04-25T06:32:23;7.47;;;6.88;;
31464;SDS011;18089;47.428;15.006;2023-04-25T06:34:55;7.82;;;6.32;;
31464;SDS011;18089;47.428;15.006;2023-04-25T06:37:28;6.47;;;5.88;;
31464;SDS011;18089;47.428;15.006;2023-04-25T06:40:00;6.80;;;6.18;;
31464;SDS011;18089;47.428;15.006;2023-04-25T06:42:33;6.82;;;6.20;;
31464;SDS011;18089;47.428;15.006;2023-04-25T06:45:06;7.95;;;6.82;;
31464;SDS011;18089;47.428;15.006;2023-04-25T06:47:39;6.78;;;6.28;;
31464;SDS011;18089;47.428;15.006;2023-04-25T06:50:11;6.57;;;6.18;;
31464;SDS011;18089;47.428;15.006;2023-04-25T06:52:42;6.75;;;6.20;;
31464;SDS011;18089;47.428;15.006;2023-04-25T06:55:15;7.15;;;6.68;;
31464;SDS011;18089;47.428;15.006;2023-04-25T06:57:48;6.70;;;6.30;;
31464;SDS011;18089;47.428;15.006;2023-04-25T07:00:20;6.28;;;5.90;;
31464;SDS011;18089;47.428;15.006;2023-04-25T07:02:52;7.68;;;5.97;;
31464;SDS011;18089;47.428;15.006;2023-04-25T07:05:24;6.00;;;5.50;;
31464;SDS011;18089;47.428;15.006;2023-04-25T07:07:56;6.00;;;5.50;;
31464;SDS011;18089;47.428;15.006;2023-04-25T07:10:28;5.90;;;5.50;;
31464;SDS011;18089;47.428;15.006;2023-04-25T07:13:02;6.03;;;5.70;;
31464;SDS011;18089;47.428;15.006;2023-04-25T07:15:34;6.30;;;5.90;;
31464;SDS011;18089;47.428;15.006;2023-04-25T07:18:06;7.00;;;6.10;;
31464;SDS011;18089;47.428;15.006;2023-04-25T07:20:38;7.35;;;6.70;;
31464;SDS011;18089;47.428;15.006;2023-04-25T07:23:10;7.38;;;6.57;;
31464;SDS011;18089;47.428;15.006;2023-04-25T07:25:42;19.27;;;12.00;;
31464;SDS011;18089;47.428;15.006;2023-04-25T07:28:18;5.97;;;5.47;;
31464;SDS011;18089;47.428;15.006;2023-04-25T07:30:50;5.63;;;5.22;;
31464;SDS011;18089;47.428;15.006;2023-04-25T07:33:22;5.20;;;4.90;;
31464;SDS011;18089;47.428;15.006;2023-04-25T07:35:54;5.30;;;4.80;;
31464;SDS011;18089;47.428;15.006;2023-04-25T07:38:26;6.47;;;5.75;;
31464;SDS011;18089;47.428;15.006;2023-04-25T07:40:58;5.00;;;4.60;;
31464;SDS011;18089;47.428;15.006;2023-04-25T07:43:32;6.47;;;5.82;;
31464;SDS011;18089;47.428;15.006;2023-04-25T07:46:04;5.32;;;4.90;;
31464;SDS011;18089;47.428;15.006;2023-04-25T07:48:36;4.93;;;4.53;;
31464;SDS011;18089;47.428;15.006;2023-04-25T07:51:08;5.78;;;5.38;;
31464;SDS011;18089;47.428;15.006;2023-04-25T07:53:40;5.28;;;4.88;;
31464;SDS011;18089;47.428;15.006;2023-04-25T07:56:12;5.43;;;4.93;;
31464;SDS011;18089;47.428;15.006;2023-04-25T07:58:45;4.97;;;4.57;;
31464;SDS011;18089;47.428;15.006;2023-04-25T08:01:17;5.18;;;4.68;;
31464;SDS011;18089;47.428;15.006;2023-04-25T08:03:51;5.43;;;4.93;;
31464;SDS011;18089;47.428;15.006;2023-04-25T08:06:23;5.05;;;4.75;;
31464;SDS011;18089;47.428;15.006;2023-04-25T08:08:55;5.13;;;4.80;;
31464;SDS011;18089;47.428;15.006;2023-04-25T08:11:27;5.20;;;4.90;;
31464;SDS011;18089;47.428;15.006;2023-04-25T08:14:01;5.18;;;4.78;;
31464;SDS011;18089;47.428;15.006;2023-04-25T08:16:33;4.90;;;4.60;;
31464;SDS011;18089;47.428;15.006;2023-04-25T08:19:05;5.35;;;4.95;;
31464;SDS011;18089;47.428;15.006;2023-04-25T08:21:37;5.50;;;5.00;;
31464;SDS011;18089;47.428;15.006;2023-04-25T08:24:09;5.63;;;5.32;;
31464;SDS011;18089;47.428;15.006;2023-04-25T08:26:41;4.78;;;4.47;;
31464;SDS011;18089;47.428;15.006;2023-04-25T08:29:15;5.25;;;4.93;;
31464;SDS011;18089;47.428;15.006;2023-04-25T08:31:47;5.20;;;4.80;;
31464;SDS011;18089;47.428;15.006;2023-04-25T08:34:19;5.15;;;4.85;;
31464;SDS011;18089;47.428;15.006;2023-04-25T08:36:51;5.05;;;4.75;;
31464;SDS011;18089;47.428;15.006;2023-04-25T08:39:23;4.85;;;4.50;;
31464;SDS011;18089;47.428;15.006;2023-04-25T08:41:55;5.15;;;4.80;;
31464;SDS011;18089;47.428;15.006;2023-04-25T08:44:29;5.55;;;5.20;;
31464;SDS011;18089;47.428;15.006;2023-04-25T08:47:02;5.18;;;4.80;;
31464;SDS011;18089;47.428;15.006;2023-04-25T08:49:35;5.30;;;4.90;;
31464;SDS011;18089;47.428;15.006;2023-04-25T08:52:07;5.22;;;4.80;;
31464;SDS011;18089;47.428;15.006;2023-04-25T08:54:41;5.32;;;4.93;;
31464;SDS011;18089;47.428;15.006;2023-04-25T08:57:14;4.70;;;4.40;;
31464;SDS011;18089;47.428;15.006;2023-04-25T08:59:48;4.70;;;4.40;;
31464;SDS011;18089;47.428;15.006;2023-04-25T09:02:20;4.65;;;4.25;;
31464;SDS011;18089;47.428;15.006;2023-04-25T09:04:53;5.03;;;4.70;;
31464;SDS011;18089;47.428;15.006;2023-04-25T09:07:26;5.25;;;4.95;;
31464;SDS011;18089;47.428;15.006;2023-04-25T09:09:58;5.18;;;4.80;;
31464;SDS011;18089;47.428;15.006;2023-04-25T09:12:33;5.40;;;5.10;;
31464;SDS011;18089;47.428;15.006;2023-04-25T09:15:08;5.47;;;5.13;;
31464;SDS011;18089;47.428;15.006;2023-04-25T09:17:41;5.20;;;4.90;;
31464;SDS011;18089;47.428;15.006;2023-04-25T09:20:14;4.80;;;4.50;;
31464;SDS011;18089;47.428;15.006;2023-04-25T09:22:46;5.18;;;4.82;;
31464;SDS011;18089;47.428;15.006;2023-04-25T09:25:18;5.05;;;4.72;;
31464;SDS011;18089;47.428;15.006;2023-04-25T09:27:50;4.50;;;4.20;;
31464;SDS011;18089;47.428;15.006;2023-04-25T09:30:29;5.72;;;4.10;;
31464;SDS011;18089;47.428;15.006;2023-04-25T09:33:05;4.30;;;4.00;;
31464;SDS011;18089;47.428;15.006;2023-04-25T09:35:38;3.80;;;3.50;;
31464;SDS011;18089;47.428;15.006;2023-04-25T09:38:11;4.57;;;4.18;;
31464;SDS011;18089;47.428;15.006;2023-04-25T09:40:45;4.72;;;4.43;;
31464;SDS011;18089;47.428;15.006;2023-04-25T09:43:19;4.25;;;4.05;;
31464;SDS011;18089;47.428;15.006;2023-04-25T09:45:54;3.80;;;3.60;;
31464;SDS011;18089;47.428;15.006;2023-04-25T09:48:29;4.45;;;4.10;;
31464;SDS011;18089;47.428;15.006;2023-04-25T09:51:07;4.68;;;3.70;;
31464;SDS011;18089;47.428;15.006;2023-04-25T09:53:40;3.85;;;3.60;;
31464;SDS011;18089;47.428;15.006;2023-04-25T09:56:13;4.03;;;3.72;;
31464;SDS011;18089;47.428;15.006;2023-04-25T09:58:46;3.92;;;3.58;;
31464;SDS011;18089;47.428;15.006;2023-04-25T10:01:20;3.90;;;3.50;;
31464;SDS011;18089;47.428;15.006;2023-04-25T10:03:53;4.05;;;3.75;;
31464;SDS011;18089;47.428;15.006;2023-04-25T10:06:28;3.83;;;3.55;;
31464;SDS011;18089;47.428;15.006;2023-04-25T10:09:01;4.22;;;3.80;;
31464;SDS011;18089;47.428;15.006;2023-04-25T10:11:33;4.38;;;3.95;;
31464;SDS011;18089;47.428;15.006;2023-04-25T10:14:06;4.07;;;3.80;;
31464;SDS011;18089;47.428;15.006;2023-04-25T10:16:40;4.63;;;4.25;;
31464;SDS011;18089;47.428;15.006;2023-04-25T10:19:13;4.80;;;4.40;;
31464;SDS011;18089;47.428;15.006;2023-04-25T10:21:47;5.10;;;4.70;;
31464;SDS011;18089;47.428;15.006;2023-04-25T10:24:21;5.07;;;4.82;;
31464;SDS011;18089;47.428;15.006;2023-04-25T10:26:53;5.60;;;5.20;;
31464;SDS011;18089;47.428;15.006;2023-04-25T10:29:26;6.03;;;5.63;;
31464;SDS011;18089;47.428;15.006;2023-04-25T10:31:59;6.40;;;5.90;;
31464;SDS011;18089;47.428;15.006;2023-04-25T10:34:38;6.03;;;5.72;;
31464;SDS011;18089;47.428;15.006;2023-04-25T10:37:11;6.00;;;5.70;;
31464;SDS011;18089;47.428;15.006;2023-04-25T10:39:43;6.50;;;6.20;;
31464;SDS011;18089;47.428;15.006;2023-04-25T10:42:16;6.25;;;5.95;;
31464;SDS011;18089;47.428;15.006;2023-04-25T10:45:00;5.95;;;5.65;;
31464;SDS011;18089;47.428;15.006;2023-04-25T10:47:35;6.32;;;5.82;;
31464;SDS011;18089;47.428;15.006;2023-04-25T10:50:08;4.70;;;4.30;;
31464;SDS011;18089;47.428;15.006;2023-04-25T10:52:41;4.55;;;4.15;;
31464;SDS011;18089;47.428;15.006;2023-04-25T10:55:13;3.50;;;3.20;;
31464;SDS011;18089;47.428;15.006;2023-04-25T10:57:45;3.92;;;3.72;;
31464;SDS011;18089;47.428;15.006;2023-04-25T11:00:20;5.10;;;3.35;;
31464;SDS011;18089;47.428;15.006;2023-04-25T11:02:57;4.82;;;3.90;;
31464;SDS011;18089;47.428;15.006;2023-04-25T11:05:31;4.97;;;4.32;;
31464;SDS011;18089;47.428;15.006;2023-04-25T11:08:05;5.78;;;5.18;;
31464;SDS011;18089;47.428;15.006;2023-04-25T11:10:44;4.82;;;4.53;;
31464;SDS011;18089;47.428;15.006;2023-04-25T11:13:16;4.72;;;4.50;;
31464;SDS011;18089;47.428;15.006;2023-04-25T11:15:50;4.30;;;4.10;;
31464;SDS011;18089;47.428;15.006;2023-04-25T11:18:27;4.88;;;4.50;;
31464;SDS011;18089;47.428;15.006;2023-04-25T11:20:59;4.88;;;4.60;;
31464;SDS011;18089;47.428;15.006;2023-04-25T11:23:31;5.28;;;4.47;;
31464;SDS011;18089;47.428;15.006;2023-04-25T11:26:03;4.10;;;3.90;;
31464;SDS011;18089;47.428;15.006;2023-04-25T11:28:35;4.38;;;4.18;;
31464;SDS011;18089;47.428;15.006;2023-04-25T11:31:07;3.80;;;3.60;;
31464;SDS011;18089;47.428;15.006;2023-04-25T11:33:41;3.33;;;3.13;;
31464;SDS011;18089;47.428;15.006;2023-04-25T11:36:15;2.90;;;2.70;;
31464;SDS011;18089;47.428;15.006;2023-04-25T11:38:47;3.15;;;2.70;;
31464;SDS011;18089;47.428;15.006;2023-04-25T11:41:19;3.45;;;3.35;;
31464;SDS011;18089;47.428;15.006;2023-04-25T11:43:52;3.65;;;3.45;;
31464;SDS011;18089;47.428;15.006;2023-04-25T11:46:24;3.88;;;3.67;;
31464;SDS011;18089;47.428;15.006;2023-04-25T11:48:57;3.97;;;3.60;;
31464;SDS011;18089;47.428;15.006;2023-04-25T11:51:29;3.78;;;3.58;;
31464;SDS011;18089;47.428;15.006;2023-04-25T11:54:01;4.40;;;4.00;;
31464;SDS011;18089;47.428;15.006;2023-04-25T11:56:34;3.65;;;3.45;;
31464;SDS011;18089;47.428;15.006;2023-04-25T11:59:06;3.75;;;3.40;;
31464;SDS011;18089;47.428;15.006;2023-04-25T12:01:38;3.95;;;3.65;;
31464;SDS011;18089;47.428;15.006;2023-04-25T12:04:13;3.90;;;3.50;;
31464;SDS011;18089;47.428;15.006;2023-04-25T12:06:47;3.63;;;3.42;;
31464;SDS011;18089;47.428;15.006;2023-04-25T12:09:21;3.70;;;3.35;;
31464;SDS011;18089;47.428;15.006;2023-04-25T12:12:00;3.42;;;3.22;;
31464;SDS011;18089;47.428;15.006;2023-04-25T12:14:34;3.42;;;3.22;;
31464;SDS011;18089;47.428;15.006;2023-04-25T12:17:07;3.30;;;3.10;;
31464;SDS011;18089;47.428;15.006;2023-04-25T12:19:41;2.95;;;2.83;;
31464;SDS011;18089;47.428;15.006;2023-04-25T12:22:20;3.25;;;3.05;;
31464;SDS011;18089;47.428;15.006;2023-04-25T12:24:53;3.30;;;3.00;;
31464;SDS011;18089;47.428;15.006;2023-04-25T12:27:28;3.13;;;3.00;;
31464;SDS011;18089;47.428;15.006;2023-04-25T12:30:02;3.65;;;3.40;;
31464;SDS011;18089;47.428;15.006;2023-04-25T12:32:37;3.90;;;3.70;;
31464;SDS011;18089;47.428;15.006;2023-04-25T12:35:10;3.20;;;3.10;;
31464;SDS011;18089;47.428;15.006;2023-04-25T12:37:42;3.80;;;3.30;;
31464;SDS011;18089;47.428;15.006;2023-04-25T12:40:14;3.60;;;3.30;;
31464;SDS011;18089;47.428;15.006;2023-04-25T12:42:46;3.42;;;3.22;;
31464;SDS011;18089;47.428;15.006;2023-04-25T12:45:18;4.15;;;3.95;;
31464;SDS011;18089;47.428;15.006;2023-04-25T12:47:50;4.18;;;3.88;;
31464;SDS011;18089;47.428;15.006;2023-04-25T12:50:23;3.90;;;3.70;;
31464;SDS011;18089;47.428;15.006;2023-04-25T12:52:56;6.65;;;6.05;;
31464;SDS011;18089;47.428;15.006;2023-04-25T12:55:28;6.90;;;5.45;;
31464;SDS011;18089;47.428;15.006;2023-04-25T12:58:00;12.63;;;8.35;;
31464;SDS011;18089;47.428;15.006;2023-04-25T13:00:33;3.08;;;2.88;;
31464;SDS011;18089;47.428;15.006;2023-04-25T13:03:05;36.75;;;20.15;;
31464;SDS011;18089;47.428;15.006;2023-04-25T13:05:39;5.40;;;4.68;;
31464;SDS011;18089;47.428;15.006;2023-04-25T13:08:11;5.43;;;4.78;;
31464;SDS011;18089;47.428;15.006;2023-04-25T13:10:43;3.63;;;3.38;;
31464;SDS011;18089;47.428;15.006;2023-04-25T13:13:15;3.63;;;3.33;;
31464;SDS011;18089;47.428;15.006;2023-04-25T13:15:47;3.55;;;3.35;;
31464;SDS011;18089;47.428;15.006;2023-04-25T13:18:19;3.88;;;3.67;;
31464;SDS011;18089;47.428;15.006;2023-04-25T13:20:53;4.22;;;4.03;;
31464;SDS011;18089;47.428;15.006;2023-04-25T13:23:25;4.90;;;4.60;;
31464;SDS011;18089;47.428;15.006;2023-04-25T13:25:58;5.07;;;4.70;;
31464;SDS011;18089;47.428;15.006;2023-04-25T13:28:31;4.40;;;4.10;;
31464;SDS011;18089;47.428;15.006;2023-04-25T13:31:03;5.53;;;5.10;;
31464;SDS011;18089;47.428;15.006;2023-04-25T13:33:36;11.38;;;8.13;;
31464;SDS011;18089;47.428;15.006;2023-04-25T13:36:09;4.30;;;4.10;;
31464;SDS011;18089;47.428;15.006;2023-04-25T13:38:41;21.15;;;13.60;;
31464;SDS011;18089;47.428;15.006;2023-04-25T13:41:15;5.50;;;5.05;;
31464;SDS011;18089;47.428;15.006;2023-04-25T13:43:48;4.70;;;3.80;;
31464;SDS011;18089;47.428;15.006;2023-04-25T13:46:20;3.30;;;3.15;;
31464;SDS011;18089;47.428;15.006;2023-04-25T13:48:52;2.83;;;2.63;;
31464;SDS011;18089;47.428;15.006;2023-04-25T13:51:26;2.70;;;2.50;;
31464;SDS011;18089;47.428;15.006;2023-04-25T13:53:58;2.65;;;2.50;;
31464;SDS011;18089;47.428;15.006;2023-04-25T13:56:30;3.80;;;2.92;;
31464;SDS011;18089;47.428;15.006;2023-04-25T13:59:02;2.90;;;2.80;;
31464;SDS011;18089;47.428;15.006;2023-04-25T14:01:34;2.55;;;2.45;;
31464;SDS011;18089;47.428;15.006;2023-04-25T14:04:06;6.13;;;4.43;;
31464;SDS011;18089;47.428;15.006;2023-04-25T14:06:40;4.45;;;4.05;;
31464;SDS011;18089;47.428;15.006;2023-04-25T14:09:12;2.28;;;2.17;;
31464;SDS011;18089;47.428;15.006;2023-04-25T14:11:45;2.40;;;2.30;;
31464;SDS011;18089;47.428;15.006;2023-04-25T14:14:17;2.20;;;2.10;;
31464;SDS011;18089;47.428;15.006;2023-04-25T14:16:49;2.20;;;1.70;;
31464;SDS011;18089;47.428;15.006;2023-04-25T14:19:24;3.42;;;2.75;;
31464;SDS011;18089;47.428;15.006;2023-04-25T14:21:57;2.38;;;2.17;;
31464;SDS011;18089;47.428;15.006;2023-04-25T14:24:29;1.30;;;1.20;;
31464;SDS011;18089;47.428;15.006;2023-04-25T14:27:01;2.28;;;1.30;;
31464;SDS011;18089;47.428;15.006;2023-04-25T14:29:33;1.50;;;1.33;;
31464;SDS011;18089;47.428;15.006;2023-04-25T14:32:05;1.63;;;1.35;;
31464;SDS011;18089;47.428;15.006;2023-04-25T14:34:37;2.47;;;1.58;;
31464;SDS011;18089;47.428;15.006;2023-04-25T14:37:11;1.90;;;1.80;;
31464;SDS011;18089;47.428;15.006;2023-04-25T14:39:43;2.10;;;2.00;;
31464;SDS011;18089;47.428;15.006;2023-04-25T14:42:15;2.25;;;2.15;;
31464;SDS011;18089;47.428;15.006;2023-04-25T14:44:47;2.78;;;2.58;;
31464;SDS011;18089;47.428;15.006;2023-04-25T14:47:19;2.70;;;2.55;;
31464;SDS011;18089;47.428;15.006;2023-04-25T14:49:51;2.42;;;2.33;;
31464;SDS011;18089;47.428;15.006;2023-04-25T14:52:25;2.13;;;2.00;;
31464;SDS011;18089;47.428;15.006;2023-04-25T14:54:57;4.30;;;1.98;;
31464;SDS011;18089;47.428;15.006;2023-04-25T14:57:31;2.35;;;1.70;;
31464;SDS011;18089;47.428;15.006;2023-04-25T15:00:04;2.08;;;1.83;;
31464;SDS011;18089;47.428;15.006;2023-04-25T15:02:39;2.40;;;2.20;;
31464;SDS011;18089;47.428;15.006;2023-04-25T15:05:11;2.10;;;2.00;;